Time;durP1;ratioP1;P1;durP2;ratioP2;P2;SDS_P1;SDS_P2;PMS_P1;PMS_P2;Temp;Humidity;BMP_temperature;BMP_pressure;BME280_temperature;BME280_humidity;BME280_pressure;Samples;Min_cycle;Max_cycle;Signal;HPM_P1;HPM_P2
2023/01/14 00:02:18;;;;;;;8.00;1.50;;;7.20;99.90;;;;;;5074246;28;20039;-52
2023/01/14 00:04:43;;;;;;;2.75;1.25;;;7.20;99.90;;;;;;5098923;28;20036;-54
2023/01/14 00:07:09;;;;;;;5.10;1.58;;;7.20;99.90;;;;;;5096694;28;20656;-56
2023/01/14 00:09:34;;;;;;;5.13;1.50;;;7.30;99.90;;;;;;5094463;28;20488;-56
2023/01/14 00:12:00;;;;;;;4.63;1.60;;;7.30;99.90;;;;;;5106201;28;20119;-55
2023/01/14 00:14:30;;;;;;;6.53;1.83;;;7.40;99.90;;;;;;5088866;28;20051;-56
2023/01/14 00:16:57;;;;;;;4.50;1.30;;;7.40;99.90;;;;;;5106110;28;20031;-58
2023/01/14 00:19:23;;;;;;;4.63;1.42;;;7.30;99.90;;;;;;5088795;28;20266;-56
2023/01/14 00:21:50;;;;;;;2.92;1.25;;;7.30;99.90;;;;;;5106088;28;20030;-56
2023/01/14 00:24:18;;;;;;;6.47;1.88;;;7.20;99.90;;;;;;5087356;28;20550;-56
2023/01/14 00:26:45;;;;;;;3.90;1.17;;;7.20;99.90;;;;;;5105786;28;20388;-55
2023/01/14 00:29:17;;;;;;;3.42;1.10;;;7.10;99.90;;;;;;5088879;28;20450;-57
2023/01/14 00:31:43;;;;;;;4.82;1.50;;;7.10;99.90;;;;;;5106718;28;20511;-55
2023/01/14 00:34:09;;;;;;;2.85;1.25;;;7.20;99.90;;;;;;5086819;28;20028;-56
2023/01/14 00:36:35;;;;;;;6.60;1.30;;;7.20;99.90;;;;;;5094777;28;20036;-56
2023/01/14 00:39:00;;;;;;;3.63;1.30;;;7.20;99.90;;;;;;5084959;28;20381;-56
2023/01/14 00:41:27;;;;;;;3.40;1.23;;;7.30;99.90;;;;;;5086394;28;20026;-57
2023/01/14 00:43:55;;;;;;;4.93;1.85;;;7.30;99.90;;;;;;5077960;28;20387;-55
2023/01/14 00:46:26;;;;;;;6.75;1.52;;;7.40;99.90;;;;;;5100564;28;20120;-56
2023/01/14 00:48:52;;;;;;;4.00;1.13;;;7.40;99.90;;;;;;5083338;28;20036;-55
2023/01/14 00:51:19;;;;;;;3.47;1.58;;;7.40;99.90;;;;;;5103611;28;20034;-54
2023/01/14 00:53:45;;;;;;;2.58;1.33;;;7.40;99.90;;;;;;5107605;28;20035;-53
2023/01/14 00:56:11;;;;;;;3.80;1.17;;;7.40;99.90;;;;;;5089446;28;20188;-56
2023/01/14 00:58:37;;;;;;;2.72;1.23;;;7.40;99.90;;;;;;5088281;28;20028;-57
2023/01/14 01:01:03;;;;;;;4.93;1.55;;;7.40;99.90;;;;;;5089748;28;20071;-56
2023/01/14 01:03:29;;;;;;;3.95;1.65;;;7.40;99.90;;;;;;5107796;28;20035;-56
2023/01/14 01:05:54;;;;;;;5.95;1.50;;;7.40;99.90;;;;;;5088676;28;20028;-56
2023/01/14 01:08:21;;;;;;;2.83;1.33;;;7.40;99.90;;;;;;5097864;28;20147;-54
2023/01/14 01:10:49;;;;;;;4.90;1.38;;;7.40;99.90;;;;;;5096205;28;20035;-55
2023/01/14 01:13:16;;;;;;;5.85;1.38;;;7.50;99.90;;;;;;5107739;28;20039;-55
2023/01/14 01:15:42;;;;;;;5.07;1.70;;;7.50;99.90;;;;;;5086970;28;20472;-50
2023/01/14 01:18:10;;;;;;;6.00;1.58;;;7.40;99.90;;;;;;5083833;28;20031;-56
2023/01/14 01:20:36;;;;;;;3.05;1.17;;;7.50;99.90;;;;;;5109142;28;20031;-52
2023/01/14 01:23:03;;;;;;;4.60;1.40;;;7.50;99.90;;;;;;5088641;28;20028;-53
2023/01/14 01:25:28;;;;;;;4.05;1.20;;;7.50;99.90;;;;;;5107964;28;20028;-53
2023/01/14 01:27:55;;;;;;;2.40;0.98;;;7.50;99.90;;;;;;5095371;28;20047;-53
2023/01/14 01:30:21;;;;;;;3.20;1.10;;;7.50;99.90;;;;;;5109913;28;20047;-55
2023/01/14 01:32:47;;;;;;;2.88;1.20;;;7.50;99.90;;;;;;5087925;28;20028;-52
2023/01/14 01:35:12;;;;;;;3.03;0.98;;;7.50;99.90;;;;;;5109137;28;20027;-54
2023/01/14 01:37:38;;;;;;;1.88;1.00;;;7.50;99.90;;;;;;5088084;28;20524;-55
2023/01/14 01:40:05;;;;;;;3.45;1.20;;;7.50;99.90;;;;;;5108809;28;20031;-52
2023/01/14 01:42:54;;;;;;;4.85;1.33;;;7.50;99.90;;;;;;5088088;28;20042;-53
2023/01/14 01:45:42;;;;;;;2.83;1.20;;;7.50;99.90;;;;;;5069253;28;20031;-54
2023/01/14 01:48:22;;;;;;;3.85;1.42;;;7.50;99.90;;;;;;5084373;28;20032;-55
2023/01/14 01:50:52;;;;;;;3.67;1.20;;;7.50;99.90;;;;;;5068842;28;20021;-55
2023/01/14 01:53:19;;;;;;;8.65;1.92;;;7.50;99.90;;;;;;5085661;28;20043;-55
2023/01/14 01:55:49;;;;;;;3.42;0.98;;;7.50;99.90;;;;;;5108837;28;20059;-55
2023/01/14 01:58:15;;;;;;;3.25;1.30;;;7.50;99.90;;;;;;5085394;28;20499;-56
2023/01/14 02:00:40;;;;;;;3.13;1.27;;;7.50;99.90;;;;;;5108694;28;20288;-51
2023/01/14 02:03:23;;;;;;;3.13;1.15;;;7.50;99.90;;;;;;5086595;28;20040;-53
2023/01/14 02:05:51;;;;;;;2.33;1.08;;;7.50;99.90;;;;;;5084335;28;20041;-53
2023/01/14 02:08:17;;;;;;;1.90;0.90;;;7.50;99.90;;;;;;5087374;28;20146;-54
2023/01/14 02:10:45;;;;;;;1.75;0.90;;;7.60;99.90;;;;;;5108500;28;20574;-52
2023/01/14 02:13:26;;;;;;;3.90;1.70;;;7.60;99.90;;;;;;5087154;28;20060;-54
2023/01/14 02:16:20;;;;;;;2.92;1.00;;;7.60;99.90;;;;;;5068981;28;20024;-53
2023/01/14 02:19:14;;;;;;;2.10;0.80;;;7.60;99.90;;;;;;5068695;28;20025;-55
2023/01/14 02:21:47;;;;;;;1.75;1.02;;;7.60;99.90;;;;;;5076453;28;20368;-53
2023/01/14 02:24:33;;;;;;;4.45;1.05;;;7.50;99.90;;;;;;5109293;28;20032;-54
2023/01/14 02:27:08;;;;;;;2.60;1.17;;;7.50;99.90;;;;;;5081649;28;20020;-55
2023/01/14 02:29:43;;;;;;;2.53;1.17;;;7.40;99.90;;;;;;5109262;28;20027;-55
2023/01/14 02:32:30;;;;;;;2.28;1.05;;;7.40;99.90;;;;;;5084240;28;20503;-53
2023/01/14 02:35:22;;;;;;;3.10;1.10;;;7.50;99.90;;;;;;5068533;28;20058;-53
2023/01/14 02:38:16;;;;;;;3.55;1.08;;;7.40;99.90;;;;;;5084054;28;20021;-54
2023/01/14 02:40:55;;;;;;;4.70;1.00;;;7.40;99.90;;;;;;5083996;28;20028;-53
2023/01/14 02:46:27;;;;;;;3.25;1.50;;;7.50;99.90;;;;;;5075455;28;20088;-53
2023/01/14 02:48:53;;;;;;;3.42;1.10;;;7.40;99.90;;;;;;5109195;28;20031;-48
2023/01/14 02:51:20;;;;;;;5.00;1.25;;;7.40;99.90;;;;;;5092126;28;20543;-55
2023/01/14 02:53:45;;;;;;;2.70;1.10;;;7.40;99.90;;;;;;5108786;28;20038;-55
2023/01/14 02:56:11;;;;;;;3.95;1.20;;;7.40;99.90;;;;;;5091164;28;20031;-54
2023/01/14 02:58:59;;;;;;;3.67;1.05;;;7.40;99.90;;;;;;5109030;28;20023;-51
2023/01/14 03:02:12;;;;;;;2.65;1.20;;;7.40;99.90;;;;;;5078253;28;20027;-54
2023/01/14 03:05:14;;;;;;;4.30;1.45;;;7.30;99.90;;;;;;5069249;28;20029;-55
2023/01/14 03:08:02;;;;;;;5.13;1.85;;;7.20;99.90;;;;;;5106973;28;20034;-55
2023/01/14 03:10:41;;;;;;;2.67;1.15;;;7.20;99.90;;;;;;5068228;28;20049;-55
2023/01/14 03:13:32;;;;;;;5.35;1.20;;;7.10;99.90;;;;;;5086961;28;20063;-55
2023/01/14 03:16:08;;;;;;;2.70;1.10;;;7.10;99.90;;;;;;5074280;28;20488;-58
2023/01/14 03:18:45;;;;;;;2.40;1.10;;;7.00;99.90;;;;;;5112689;28;20027;-59
2023/01/14 03:21:20;;;;;;;1.52;0.80;;;7.00;99.90;;;;;;5077898;28;20028;-59
2023/01/14 03:24:00;;;;;;;3.17;1.07;;;7.00;99.90;;;;;;5112277;28;20503;-58
2023/01/14 03:26:31;;;;;;;3.00;1.17;;;7.00;99.90;;;;;;5081908;28;20027;-58
2023/01/14 03:29:00;;;;;;;3.45;1.05;;;7.10;99.90;;;;;;5112302;28;20039;-59
2023/01/14 03:31:29;;;;;;;3.42;1.42;;;7.10;99.90;;;;;;5095748;28;20059;-58
2023/01/14 03:33:59;;;;;;;2.72;1.45;;;7.10;99.90;;;;;;5112628;27;20019;-59
2023/01/14 03:36:28;;;;;;;2.90;1.00;;;7.10;99.90;;;;;;5081294;28;20080;-59
2023/01/14 03:39:15;;;;;;;1.27;0.80;;;7.10;99.90;;;;;;5112113;28;20024;-59
2023/01/14 03:44:37;;;;;;;3.45;1.00;;;7.20;99.90;;;;;;5071418;28;20070;-59
2023/01/14 03:47:03;;;;;;;3.63;1.17;;;7.20;99.90;;;;;;5091715;28;20043;-59
2023/01/14 03:49:28;;;;;;;3.42;0.98;;;7.20;99.90;;;;;;5091912;27;20032;-58
2023/01/14 03:52:24;;;;;;;1.55;0.77;;;7.10;99.90;;;;;;5109061;28;20565;-59
2023/01/14 03:55:06;;;;;;;3.17;0.98;;;7.10;99.90;;;;;;5071110;28;20040;-59
2023/01/14 03:57:38;;;;;;;3.72;1.30;;;7.10;99.90;;;;;;5094178;28;20028;-59
2023/01/14 04:00:14;;;;;;;3.38;0.95;;;7.00;99.90;;;;;;5071156;28;20051;-60
2023/01/14 04:02:41;;;;;;;1.25;0.82;;;6.90;99.90;;;;;;5086641;28;20568;-59
2023/01/14 04:05:08;;;;;;;3.60;1.15;;;6.90;99.90;;;;;;5090003;28;20031;-59
2023/01/14 04:07:33;;;;;;;4.22;1.13;;;6.90;99.90;;;;;;5109790;28;20442;-59
2023/01/14 04:09:59;;;;;;;2.80;1.02;;;6.90;99.90;;;;;;5091486;28;20114;-58
2023/01/14 04:12:24;;;;;;;3.45;1.10;;;6.90;99.90;;;;;;5093909;28;20093;-58
2023/01/14 04:17:37;;;;;;;1.73;0.85;;;6.90;99.90;;;;;;5084465;28;20046;-59
2023/01/14 04:20:04;;;;;;;4.55;0.93;;;6.90;99.90;;;;;;5090664;28;20051;-60
2023/01/14 04:22:29;;;;;;;2.20;1.08;;;6.90;99.90;;;;;;5093364;28;20028;-59
2023/01/14 04:24:55;;;;;;;3.25;1.10;;;6.80;99.90;;;;;;5109609;28;20031;-59
2023/01/14 04:27:20;;;;;;;6.03;1.27;;;6.90;99.90;;;;;;5091703;28;20040;-59
2023/01/14 04:29:45;;;;;;;3.60;1.20;;;6.80;99.90;;;;;;5111287;28;20552;-59
2023/01/14 04:32:11;;;;;;;1.98;1.00;;;6.80;99.90;;;;;;5089402;28;20092;-58
2023/01/14 04:34:36;;;;;;;2.08;1.15;;;6.90;99.90;;;;;;5110376;28;20039;-58
2023/01/14 04:37:02;;;;;;;8.85;1.58;;;6.90;99.90;;;;;;5087742;28;20046;-57
2023/01/14 04:39:27;;;;;;;3.20;1.30;;;6.90;99.90;;;;;;5096036;28;20020;-59
2023/01/14 04:44:37;;;;;;;2.67;1.00;;;6.90;99.90;;;;;;5070100;28;20051;-56
2023/01/14 04:47:02;;;;;;;3.88;1.30;;;6.90;99.90;;;;;;5095785;28;20102;-58
2023/01/14 04:49:28;;;;;;;2.20;1.35;;;6.90;99.90;;;;;;5110068;28;20399;-59
2023/01/14 04:51:53;;;;;;;5.43;1.10;;;6.90;99.90;;;;;;5099569;28;20104;-58
2023/01/14 04:54:19;;;;;;;5.15;1.40;;;6.90;99.90;;;;;;5090848;28;20032;-59
2023/01/14 04:56:44;;;;;;;3.33;0.95;;;6.90;99.90;;;;;;5107660;28;20043;-59
2023/01/14 04:59:10;;;;;;;4.32;1.27;;;6.90;99.90;;;;;;5090897;28;20032;-60
2023/01/14 05:01:36;;;;;;;2.88;0.93;;;6.90;99.90;;;;;;5107863;28;20036;-60
2023/01/14 05:04:01;;;;;;;3.30;1.02;;;6.90;99.90;;;;;;5089358;28;20036;-59
2023/01/14 05:06:28;;;;;;;4.80;1.40;;;6.90;99.90;;;;;;5107397;28;20031;-59
2023/01/14 05:08:54;;;;;;;5.45;1.88;;;7.00;99.90;;;;;;5108984;28;20655;-58
2023/01/14 05:11:19;;;;;;;5.40;1.42;;;7.00;99.90;;;;;;5094120;28;20035;-58
2023/01/14 05:13:45;;;;;;;3.88;1.20;;;7.00;99.90;;;;;;5110469;28;20039;-59
2023/01/14 05:16:10;;;;;;;3.15;2.08;;;7.00;99.90;;;;;;5093241;28;20106;-58
2023/01/14 05:18:36;;;;;;;8.10;1.35;;;6.90;99.90;;;;;;5110421;28;20039;-59
2023/01/14 05:21:01;;;;;;;1.67;0.95;;;7.00;99.90;;;;;;5091189;28;20348;-58
2023/01/14 05:23:27;;;;;;;2.45;1.35;;;6.90;99.90;;;;;;5110145;28;20079;-58
2023/01/14 05:25:52;;;;;;;5.07;1.00;;;6.90;99.90;;;;;;5089152;28;20030;-58
2023/01/14 05:28:19;;;;;;;4.55;1.40;;;7.00;99.90;;;;;;5099337;28;20579;-57
2023/01/14 05:30:45;;;;;;;1.30;1.02;;;6.90;99.90;;;;;;5107507;28;20045;-58
2023/01/14 05:33:11;;;;;;;5.40;1.00;;;6.90;99.90;;;;;;5108682;28;20112;-59
2023/01/14 05:35:37;;;;;;;4.40;1.35;;;6.90;99.90;;;;;;5089989;28;20073;-57
2023/01/14 05:38:04;;;;;;;3.63;1.30;;;6.90;99.90;;;;;;5106355;28;20039;-60
2023/01/14 05:40:29;;;;;;;7.25;1.45;;;7.00;99.90;;;;;;5088680;28;20023;-59
2023/01/14 05:45:49;;;;;;;3.42;1.42;;;7.00;99.90;;;;;;5067192;28;20040;-59
2023/01/14 05:48:16;;;;;;;;;;;7.00;99.90;;;;;;5110411;28;20026;-60
2023/01/14 05:50:41;;;;;;;3.70;1.27;;;7.00;99.90;;;;;;5088278;28;19912;-58
2023/01/14 05:53:07;;;;;;;2.92;1.50;;;7.00;99.90;;;;;;5109643;28;20035;-59
2023/01/14 05:55:34;;;;;;;7.03;1.48;;;7.10;99.90;;;;;;5089805;28;20020;-59
2023/01/14 05:58:01;;;;;;;4.45;1.35;;;7.10;99.90;;;;;;5106861;28;20036;-59
2023/01/14 06:08:27;;;;;;;4.50;1.40;;;7.20;99.90;;;;;;5109756;28;20036;-59
2023/01/14 06:10:53;;;;;;;6.05;1.50;;;7.20;99.90;;;;;;5089500;28;20411;-60
2023/01/14 06:13:21;;;;;;;7.05;1.70;;;7.20;99.90;;;;;;5109475;28;20115;-60
2023/01/14 06:15:51;;;;;;;6.65;1.20;;;7.20;99.90;;;;;;5088402;28;20047;-60
2023/01/14 06:18:21;;;;;;;3.38;1.42;;;7.20;99.90;;;;;;5109723;28;20011;-60
2023/01/14 06:20:48;;;;;;;3.15;1.20;;;7.20;99.90;;;;;;5069461;28;20167;-60
2023/01/14 06:23:13;;;;;;;2.58;1.33;;;7.20;99.90;;;;;;5109282;28;20008;-60
2023/01/14 06:25:42;;;;;;;3.38;1.30;;;7.20;99.90;;;;;;5086234;28;20404;-58
2023/01/14 06:28:07;;;;;;;4.63;1.33;;;7.20;99.90;;;;;;5100127;28;20036;-60
2023/01/14 06:30:33;;;;;;;6.50;1.30;;;7.20;99.90;;;;;;5108632;28;20038;-59
2023/01/14 06:32:58;;;;;;;5.00;1.90;;;7.20;99.90;;;;;;5107297;28;20597;-60
2023/01/14 06:35:24;;;;;;;2.35;0.90;;;7.20;99.90;;;;;;5089144;28;20042;-60
2023/01/14 06:37:50;;;;;;;2.88;1.55;;;7.30;99.90;;;;;;5088161;28;20036;-60
2023/01/14 06:40:16;;;;;;;3.88;1.38;;;7.30;99.90;;;;;;5108645;28;20030;-60
2023/01/14 06:42:42;;;;;;;5.95;1.40;;;7.30;99.90;;;;;;5087537;28;20095;-58
2023/01/14 06:45:09;;;;;;;7.45;1.90;;;7.30;99.90;;;;;;5108550;28;20023;-60
2023/01/14 06:47:34;;;;;;;6.13;1.50;;;7.30;99.90;;;;;;5087133;28;20028;-60
2023/01/14 06:50:00;;;;;;;4.60;1.70;;;7.30;99.90;;;;;;5111997;28;20092;-60
2023/01/14 06:52:25;;;;;;;2.60;1.17;;;7.30;99.90;;;;;;5091470;28;20078;-59
2023/01/14 06:54:52;;;;;;;5.07;1.42;;;7.30;99.90;;;;;;5112332;28;20500;-59
2023/01/14 06:57:18;;;;;;;5.47;1.55;;;7.30;99.90;;;;;;5091102;28;20031;-58
2023/01/14 06:59:44;;;;;;;5.57;1.50;;;7.30;99.90;;;;;;5112068;28;20027;-59
2023/01/14 07:02:10;;;;;;;5.40;1.70;;;7.30;99.90;;;;;;5091824;28;20525;-59
2023/01/14 07:04:36;;;;;;;5.70;1.52;;;7.30;99.90;;;;;;5108041;28;20016;-59
2023/01/14 07:07:02;;;;;;;2.53;1.42;;;7.40;99.90;;;;;;5104801;28;20034;-59
2023/01/14 07:09:27;;;;;;;3.25;1.23;;;7.30;99.90;;;;;;5112879;28;20042;-59
2023/01/14 07:11:52;;;;;;;4.93;1.48;;;7.20;99.90;;;;;;5090969;28;20389;-58
2023/01/14 07:14:18;;;;;;;3.08;1.48;;;7.10;99.90;;;;;;5112846;28;20028;-59
2023/01/14 07:16:43;;;;;;;5.60;1.80;;;7.00;99.90;;;;;;5092974;28;20043;-53
2023/01/14 07:19:11;;;;;;;4.60;1.70;;;7.00;99.90;;;;;;5089326;28;20391;-59
2023/01/14 07:21:37;;;;;;;7.40;2.00;;;6.90;99.90;;;;;;5112094;28;20103;-59
2023/01/14 07:24:02;;;;;;;4.70;1.77;;;6.70;99.90;;;;;;5089090;28;20043;-60
2023/01/14 07:26:28;;;;;;;7.05;2.90;;;6.70;99.90;;;;;;5111824;28;20552;-58
2023/01/14 07:28:54;;;;;;;12.48;5.07;;;6.60;99.90;;;;;;5090798;28;20048;-58
2023/01/14 07:31:20;;;;;;;11.15;4.40;;;6.60;99.90;;;;;;5111848;28;20023;-59
2023/01/14 07:33:45;;;;;;;10.63;3.78;;;6.60;99.90;;;;;;5090678;28;20385;-58
2023/01/14 07:36:11;;;;;;;7.85;3.30;;;6.60;99.90;;;;;;5111328;28;20109;-59
2023/01/14 07:38:36;;;;;;;9.85;3.85;;;6.70;99.90;;;;;;5090710;28;20043;-59
2023/01/14 07:41:07;;;;;;;6.63;3.17;;;6.70;99.90;;;;;;5106092;28;20388;-60
2023/01/14 07:43:32;;;;;;;10.88;3.65;;;6.80;99.90;;;;;;5104057;28;20035;-59
2023/01/14 07:45:58;;;;;;;9.05;3.05;;;6.80;99.90;;;;;;5086377;28;20420;-59
2023/01/14 07:48:24;;;;;;;7.07;2.53;;;6.90;99.90;;;;;;5085891;28;20024;-59
2023/01/14 07:50:49;;;;;;;10.65;3.00;;;7.00;99.90;;;;;;5090494;28;20063;-59
2023/01/14 07:53:15;;;;;;;7.70;2.60;;;7.10;99.90;;;;;;5090372;28;20442;-59
2023/01/14 07:55:40;;;;;;;7.70;2.30;;;7.10;99.90;;;;;;5110915;28;20020;-60
2023/01/14 07:58:06;;;;;;;7.70;2.47;;;7.10;99.90;;;;;;5088831;28;20042;-60
2023/01/14 08:00:31;;;;;;;17.35;3.53;;;7.10;99.90;;;;;;5109375;28;20028;-60
2023/01/14 08:02:57;;;;;;;8.38;3.17;;;7.10;99.90;;;;;;5089942;28;20127;-59
2023/01/14 08:05:22;;;;;;;6.78;2.10;;;7.00;99.90;;;;;;5093956;28;20587;-59
2023/01/14 08:07:48;;;;;;;3.72;2.10;;;7.00;99.90;;;;;;5090462;28;20032;-58
2023/01/14 08:10:13;;;;;;;5.05;1.77;;;7.00;99.90;;;;;;5089115;28;20116;-60
2023/01/14 08:12:39;;;;;;;5.05;2.00;;;6.90;99.90;;;;;;5109472;28;20109;-57
2023/01/14 08:15:06;;;;;;;4.25;1.30;;;7.00;99.90;;;;;;5088912;28;20032;-60
2023/01/14 08:17:32;;;;;;;6.22;1.70;;;7.00;99.90;;;;;;5110025;28;20368;-60
2023/01/14 08:19:57;;;;;;;3.80;1.58;;;7.10;99.90;;;;;;5088847;28;20039;-59
2023/01/14 08:22:23;;;;;;;8.27;2.00;;;7.10;99.90;;;;;;5109372;28;20027;-59
2023/01/14 08:24:50;;;;;;;3.33;1.48;;;7.20;99.90;;;;;;5088618;28;20020;-58
2023/01/14 08:27:15;;;;;;;2.17;1.13;;;7.30;99.90;;;;;;5106324;28;20027;-59
2023/01/14 08:29:41;;;;;;;6.60;1.48;;;7.50;99.90;;;;;;5088157;28;20633;-60
2023/01/14 08:32:06;;;;;;;5.13;2.05;;;7.60;99.90;;;;;;5109526;28;20063;-59
2023/01/14 08:34:32;;;;;;;3.78;1.25;;;7.70;99.90;;;;;;5088210;28;20032;-60
2023/01/14 08:36:57;;;;;;;3.10;1.25;;;7.90;99.90;;;;;;5107112;28;20024;-60
2023/01/14 08:39:23;;;;;;;3.50;1.17;;;8.10;99.90;;;;;;5090185;28;20074;-60
2023/01/14 08:41:48;;;;;;;2.47;1.23;;;8.30;99.90;;;;;;5107120;28;20640;-57
2023/01/14 08:44:14;;;;;;;5.95;1.23;;;8.40;99.90;;;;;;5090194;28;20442;-60
2023/01/14 08:46:41;;;;;;;4.30;1.13;;;8.50;99.90;;;;;;5107006;28;20020;-59
2023/01/14 08:49:07;;;;;;;4.18;1.27;;;8.60;99.90;;;;;;5089842;28;20038;-59
2023/01/14 08:51:32;;;;;;;5.68;1.23;;;8.70;99.90;;;;;;5101104;28;20095;-59
2023/01/14 08:54:01;;;;;;;2.78;1.38;;;8.80;99.90;;;;;;5101934;28;20471;-60
2023/01/14 08:56:28;;;;;;;2.28;0.98;;;9.00;99.90;;;;;;5087783;28;20053;-60
2023/01/14 08:58:54;;;;;;;3.63;1.00;;;9.20;99.90;;;;;;5109707;28;20020;-60
2023/01/14 09:01:19;;;;;;;3.30;1.17;;;9.40;99.90;;;;;;5089683;28;20032;-60
2023/01/14 09:03:46;;;;;;;4.38;1.02;;;9.60;99.90;;;;;;5106949;28;20545;-60
2023/01/14 09:06:13;;;;;;;3.92;1.20;;;9.70;99.90;;;;;;5086365;28;20020;-60
2023/01/14 09:17:05;;;;;;;3.63;1.10;;;9.70;96.00;;;;;;5077945;28;20594;-60
2023/01/14 09:19:43;;;;;;;3.30;1.40;;;9.60;95.20;;;;;;5109173;28;20023;-59
2023/01/14 09:22:12;;;;;;;6.20;1.73;;;9.50;96.80;;;;;;5080096;28;20024;-59
2023/01/14 09:24:38;;;;;;;3.22;1.08;;;9.40;99.10;;;;;;5109084;28;20034;-58
2023/01/14 09:27:03;;;;;;;2.95;1.10;;;9.40;98.90;;;;;;5092733;28;20110;-59
2023/01/14 09:29:29;;;;;;;4.50;1.90;;;9.50;99.70;;;;;;5109235;28;20084;-60
2023/01/14 09:31:54;;;;;;;7.13;1.90;;;9.50;99.30;;;;;;5091004;28;20044;-60
2023/01/14 09:34:20;;;;;;;4.97;1.77;;;9.60;97.70;;;;;;5109261;28;20023;-60
2023/01/14 09:36:45;;;;;;;6.85;1.38;;;9.70;96.10;;;;;;5106970;28;20059;-59
2023/01/14 09:39:11;;;;;;;4.70;1.27;;;9.80;94.10;;;;;;5095547;28;20103;-60
2023/01/14 09:41:53;;;;;;;5.13;1.58;;;9.90;96.50;;;;;;5107146;28;20441;-59
2023/01/14 09:44:20;;;;;;;8.27;1.27;;;10.00;96.00;;;;;;5110106;28;20020;-59
2023/01/14 09:46:46;;;;;;;6.28;1.05;;;10.10;95.20;;;;;;5096856;28;20055;-60
2023/01/14 09:49:14;;;;;;;3.75;1.40;;;10.10;94.80;;;;;;5096221;28;20492;-60
2023/01/14 09:52:01;;;;;;;5.68;1.60;;;10.10;93.50;;;;;;5107790;28;20024;-60
2023/01/14 09:54:35;;;;;;;3.88;1.10;;;10.10;92.40;;;;;;5069355;28;20070;-59
2023/01/14 09:57:10;;;;;;;2.05;1.27;;;10.10;93.80;;;;;;5089313;28;20033;-58
2023/01/14 09:59:50;;;;;;;6.95;1.27;;;10.10;92.40;;;;;;5069312;28;20032;-59
2023/01/14 10:02:33;;;;;;;4.35;1.00;;;10.20;92.80;;;;;;5088901;28;20035;-60
2023/01/14 10:05:14;;;;;;;3.33;1.48;;;10.20;92.10;;;;;;5076804;28;20077;-55
2023/01/14 10:07:40;;;;;;;5.45;1.25;;;10.30;90.00;;;;;;5107688;28;20483;-59
2023/01/14 10:10:16;;;;;;;6.85;1.60;;;10.20;90.10;;;;;;5089641;28;20028;-60
2023/01/14 10:12:44;;;;;;;5.55;1.27;;;10.20;90.40;;;;;;5083797;28;20613;-60
2023/01/14 10:15:31;;;;;;;7.47;1.77;;;10.20;90.80;;;;;;5087880;28;20098;-59
2023/01/14 10:18:23;;;;;;;4.07;1.30;;;10.10;90.70;;;;;;5069154;28;20056;-60
2023/01/14 10:20:57;;;;;;;6.45;1.30;;;10.10;89.80;;;;;;5069168;28;20031;-60
2023/01/14 10:23:39;;;;;;;5.22;1.85;;;10.00;84.70;;;;;;5107937;28;20024;-60
2023/01/14 10:26:18;;;;;;;8.70;1.98;;;9.90;84.90;;;;;;5113868;28;20030;-60
2023/01/14 10:28:48;;;;;;;3.90;1.33;;;9.80;86.80;;;;;;5080886;28;20040;-58
2023/01/14 10:31:18;;;;;;;5.53;1.48;;;9.80;90.20;;;;;;5113795;28;20027;-59
2023/01/14 10:33:45;;;;;;;3.35;1.42;;;9.80;90.10;;;;;;5080874;28;20027;-58
2023/01/14 10:36:18;;;;;;;9.93;1.95;;;9.80;87.10;;;;;;5113543;28;20467;-59
2023/01/14 10:38:44;;;;;;;7.95;2.17;;;9.70;86.70;;;;;;5096094;28;20403;-60
2023/01/14 10:41:11;;;;;;;5.32;1.50;;;9.70;88.30;;;;;;5113311;28;20019;-59
2023/01/14 10:43:42;;;;;;;8.68;2.63;;;9.70;86.80;;;;;;5094307;28;20028;-59
2023/01/14 10:46:13;;;;;;;7.22;2.30;;;9.60;87.30;;;;;;5113674;28;20034;-59
2023/01/14 10:48:50;;;;;;;9.80;1.80;;;9.60;86.40;;;;;;5079493;28;20084;-60
2023/01/14 10:51:47;;;;;;;10.23;1.95;;;9.60;87.30;;;;;;5096541;28;20024;-59
2023/01/14 10:54:15;;;;;;;6.03;1.55;;;9.60;88.70;;;;;;5088714;28;20032;-60
2023/01/14 10:56:57;;;;;;;5.00;1.73;;;9.50;87.10;;;;;;5092844;28;20081;-60
2023/01/14 10:59:39;;;;;;;7.10;1.42;;;9.60;89.20;;;;;;5091553;28;20035;-60
2023/01/14 11:02:17;;;;;;;11.55;2.03;;;9.60;89.80;;;;;;5072545;28;20033;-60
2023/01/14 11:04:43;;;;;;;6.25;1.30;;;9.70;86.00;;;;;;5085367;28;20028;-60
2023/01/14 11:07:14;;;;;;;6.60;1.80;;;9.70;87.60;;;;;;5106868;28;20023;-60
2023/01/14 11:09:40;;;;;;;8.98;1.85;;;9.70;88.50;;;;;;5083336;28;20073;-60
2023/01/14 11:12:05;;;;;;;6.15;1.60;;;9.70;87.70;;;;;;5112255;28;20120;-60
2023/01/14 11:14:37;;;;;;;9.07;2.58;;;9.70;86.10;;;;;;5091138;28;20028;-51
2023/01/14 11:17:22;;;;;;;9.70;2.58;;;9.60;84.40;;;;;;5078205;28;20024;-57
2023/01/14 11:19:47;;;;;;;5.30;2.22;;;9.70;84.90;;;;;;5076350;28;20102;-55
2023/01/14 11:22:13;;;;;;;5.95;1.65;;;9.60;84.80;;;;;;5110953;28;20055;-56
2023/01/14 11:24:43;;;;;;;8.43;1.75;;;9.60;84.80;;;;;;5090386;28;20028;-54
2023/01/14 11:27:18;;;;;;;7.82;1.83;;;9.60;84.40;;;;;;5109070;28;20035;-54
2023/01/14 11:29:55;;;;;;;6.13;1.75;;;9.70;81.60;;;;;;5083608;28;20097;-57
2023/01/14 11:32:24;;;;;;;7.00;1.60;;;9.60;81.10;;;;;;5078958;28;20580;-55
2023/01/14 11:34:55;;;;;;;6.10;1.80;;;9.50;81.10;;;;;;5070588;28;20025;-56
2023/01/14 11:37:24;;;;;;;10.32;2.10;;;9.60;81.60;;;;;;5069462;28;20033;-56
2023/01/14 11:39:53;;;;;;;9.63;1.92;;;9.60;82.60;;;;;;5110991;28;20077;-56
2023/01/14 11:42:37;;;;;;;8.32;1.65;;;9.60;83.50;;;;;;5089466;28;20024;-56
2023/01/14 11:45:11;;;;;;;9.05;2.38;;;9.60;83.30;;;;;;5107423;28;20027;-52
2023/01/14 11:47:56;;;;;;;8.30;1.95;;;9.60;83.10;;;;;;5076051;28;20115;-55
2023/01/14 11:50:27;;;;;;;7.97;1.88;;;9.60;81.10;;;;;;5070943;28;20025;-56
2023/01/14 11:53:02;;;;;;;5.93;1.90;;;9.60;82.70;;;;;;5086943;28;20446;-54
2023/01/14 11:55:31;;;;;;;5.25;1.85;;;9.60;82.80;;;;;;5070589;28;20377;-55
2023/01/14 11:58:07;;;;;;;10.48;2.47;;;9.60;78.90;;;;;;5072223;28;20026;-54
2023/01/14 12:00:36;;;;;;;9.43;1.70;;;9.60;78.00;;;;;;5071805;28;20062;-55
2023/01/14 12:03:09;;;;;;;7.45;2.67;;;9.50;78.60;;;;;;5080131;28;20111;-56
2023/01/14 12:05:35;;;;;;;7.85;1.45;;;9.50;75.20;;;;;;5082475;28;20042;-55
2023/01/14 12:08:07;;;;;;;7.28;1.85;;;9.50;75.10;;;;;;5087557;28;20029;-58
2023/01/14 12:10:42;;;;;;;9.05;2.05;;;9.50;75.30;;;;;;5095377;27;20024;-59
2023/01/14 12:19:11;;;;;;;4.88;1.60;;;9.50;76.50;;;;;;5086564;28;20454;-53
2023/01/14 12:21:53;;;;;;;6.95;2.00;;;9.50;75.90;;;;;;5074310;28;20028;-57
2023/01/14 12:24:27;;;;;;;6.03;1.80;;;9.50;74.00;;;;;;5069202;28;20028;-57
2023/01/14 12:26:54;;;;;;;10.38;1.63;;;9.40;71.10;;;;;;5082535;28;20067;-52
2023/01/14 12:29:28;;;;;;;7.55;1.83;;;9.40;73.70;;;;;;5077695;28;20040;-54
2023/01/14 12:31:59;;;;;;;12.73;2.33;;;9.40;71.90;;;;;;5070460;28;20040;-55
2023/01/14 12:34:38;;;;;;;5.55;1.85;;;9.30;70.70;;;;;;5088440;28;20093;-54
2023/01/14 12:37:15;;;;;;;5.93;1.80;;;9.30;73.30;;;;;;5069521;28;20033;-57
2023/01/14 12:45:44;;;;;;;6.13;1.67;;;9.30;70.00;;;;;;5068326;28;20106;-55
2023/01/14 12:48:18;;;;;;;8.52;1.80;;;9.20;69.80;;;;;;5072197;28;20391;-57
2023/01/14 12:50:58;;;;;;;12.10;3.40;;;9.20;72.20;;;;;;5108680;28;20031;-57
2023/01/14 12:53:29;;;;;;;6.22;2.65;;;9.20;73.20;;;;;;5076024;28;20032;-57
2023/01/14 12:55:59;;;;;;;5.93;2.45;;;9.20;72.50;;;;;;5096890;28;20566;-58
2023/01/14 12:58:29;;;;;;;4.70;1.77;;;9.10;72.50;;;;;;5102485;28;20050;-57
2023/01/14 13:01:00;;;;;;;8.65;2.10;;;9.10;72.10;;;;;;5089493;28;20028;-57
2023/01/14 13:03:39;;;;;;;7.07;1.42;;;9.00;72.10;;;;;;5077508;28;20107;-57
2023/01/14 13:06:17;;;;;;;8.52;2.58;;;9.00;72.50;;;;;;5090207;28;20032;-57
2023/01/14 13:08:50;;;;;;;12.07;2.35;;;8.90;73.10;;;;;;5100890;28;20097;-56
2023/01/14 13:11:26;;;;;;;6.18;2.08;;;8.80;73.00;;;;;;5090155;28;20020;-54
2023/01/14 13:13:55;;;;;;;9.35;2.50;;;8.80;74.30;;;;;;5087771;28;20500;-58
2023/01/14 13:16:42;;;;;;;14.88;2.20;;;8.90;75.30;;;;;;5110165;28;20039;-55
2023/01/14 13:19:26;;;;;;;7.18;2.55;;;8.90;75.60;;;;;;5086606;28;20092;-54
2023/01/14 13:21:59;;;;;;;9.68;2.90;;;8.90;76.80;;;;;;5109789;28;20027;-57
2023/01/14 13:24:32;;;;;;;9.57;2.67;;;8.90;76.10;;;;;;5069845;28;20039;-51
2023/01/14 13:27:00;;;;;;;5.18;1.35;;;8.80;75.70;;;;;;5067953;28;20481;-55
2023/01/14 13:29:30;;;;;;;8.77;2.00;;;8.80;76.20;;;;;;5089985;28;20112;-54
2023/01/14 13:31:57;;;;;;;11.70;2.40;;;8.80;77.40;;;;;;5086473;28;20024;-55
2023/01/14 13:34:23;;;;;;;10.88;2.05;;;8.70;77.30;;;;;;5110371;28;20544;-57
2023/01/14 13:36:55;;;;;;;5.45;1.95;;;8.80;78.30;;;;;;5086850;28;20484;-54
2023/01/14 13:39:22;;;;;;;9.38;2.40;;;8.70;78.10;;;;;;5109424;28;20023;-58
2023/01/14 13:41:49;;;;;;;9.77;2.03;;;8.70;77.90;;;;;;5095907;28;20074;-53
2023/01/14 13:44:25;;;;;;;11.88;2.97;;;8.60;78.50;;;;;;5088743;28;20550;-55
2023/01/14 13:46:58;;;;;;;10.90;3.72;;;8.60;79.50;;;;;;5077721;28;20032;-55
2023/01/14 13:49:40;;;;;;;11.02;3.10;;;8.60;79.40;;;;;;5069574;28;20028;-56
2023/01/14 13:52:25;;;;;;;5.60;2.45;;;8.50;79.10;;;;;;5093025;28;20061;-57
2023/01/14 13:55:17;;;;;;;23.67;11.13;;;8.50;80.10;;;;;;5069391;28;20021;-56